Главная страница
METAR-TAF:

METAR-TAF

Аэропорты :

Король Абдул-Азиз

Джидда, Саудовская Аравия

широта: 21-42N, долгота: 039-11E, высота над уровнем моря: 15 м

Текущие метеонаблюдения

Эта сводка был подготовлена 22 минут назад, в 00:00 UTC
Ветер 10 Узел от северо-западный
Температура 24°C
Влажность 74%
Давление 1014 hPa
Видимость 10 км и более
Отдельные облака на высоте 4000 фута

METAR: OEJN 180000Z 31010KT 9999 SCT040 24/19 Q1014 NOSIG

Время: 03:22 (00:22 UTC)

Прогноз

Эта сводка был подготовлена 1 час и 22 минут назад, в 23:00 UTC
Прогноз действительный с 18-го 00 UTC до 19-го 06 UTC
Ветер 12 Узел от северно-северо-западный
Видимость: 7000 м
небольшая облачность на высоте 4000 фута
Отдельные облака на высоте 10000 фута

TAF: OEJN 172300Z 1800/1906 33012KT 7000 FEW040 SCT100

Метеонаблюдения и прогнозы для более 4000 аэропортов (сводки METAR и TAF).

Имеющиеся станции представлены на карте желтыми и красными точками.

Чтобы увидеть название станции, наведите на нее мышь.

Затем щелкните, чтобы увидеть метеонаблюдения и метеопрогнозы.

Управление картой: чтобы увеличить масштаб, щелкните зеленые кнопки с черным крестиком; чтобы уменьшить масштаб, щелкните зеленую кнопку с тире; для просмотра соседних карт щелкайте зеленые стрелки.


METAR-TAF: